YPKG

Kalgoorlie Boulder Airport

Kalgoorlie, Australia
METAR YPKG 181600Z AUTO 17010KT 9999 // NCD 20/07 Q1011
Observed Flight Rules
Nov-18 @ 16:00 UTC (31 minutes ago) Visual Flight Rules
Wind Visibility Clouds
170° at 10 knots 10,000+ meters
  • Clear skies
Temperatures Readings
Current 20°C / 68°F
Dewpoint 7°C / 45°F
Humidity 43%
Altimeter 29.85" Hg
Pressure 1011 hPa
Elevation 360
METAR YPKG 181600Z AUTO 17010KT 9999 // NCD 20/07 Q1011
Observed Flight Rules
Nov-18 @ 16:00 UTC
(31 minutes ago)
VFR
Wind Visibility
170° at 10 knots 10,000+ meters
Clouds
  • Clear skies
Temperature Dewpoint
20°C / 68°F 7°C / 45°F
Humidity Altimeter Pressure
43% 29.85" Hg 1011 hPa